createdAt,value
2022-08-08T00:01:52.458Z,2.00
2022-08-08T00:04:25.534Z,2.00
2022-08-08T00:07:12.472Z,2.28
2022-08-08T00:09:52.753Z,1.90
2022-08-08T00:12:26.791Z,1.85
2022-08-08T00:15:17.457Z,1.80
2022-08-08T00:18:17.057Z,1.95
2022-08-08T00:20:54.010Z,2.13
2022-08-08T00:23:58.464Z,1.92
2022-08-08T00:26:38.581Z,1.95
2022-08-08T00:29:45.773Z,1.70
2022-08-08T00:32:38.535Z,2.03
2022-08-08T00:35:21.014Z,2.00
2022-08-08T00:38:01.471Z,2.13
2022-08-08T00:41:10.275Z,1.90
2022-08-08T00:43:46.103Z,2.00
2022-08-08T00:47:14.251Z,1.95
2022-08-08T00:50:05.302Z,2.17
2022-08-08T00:53:16.833Z,2.13
2022-08-08T00:55:54.818Z,1.88
2022-08-08T00:59:02.664Z,2.13
2022-08-08T01:01:49.518Z,2.00
2022-08-08T01:04:51.693Z,1.83
2022-08-08T01:07:55.280Z,1.67
2022-08-08T01:10:50.870Z,1.70
2022-08-08T01:13:43.640Z,2.00
2022-08-08T01:16:45.631Z,1.65
2022-08-08T01:20:02.059Z,1.90
2022-08-08T01:24:02.909Z,1.80
2022-08-08T01:26:24.531Z,1.75
2022-08-08T01:29:01.660Z,1.88
2022-08-08T01:32:06.620Z,1.63
2022-08-08T01:35:11.322Z,1.60
2022-08-08T01:37:56.881Z,1.85
2022-08-08T01:40:52.820Z,1.60
2022-08-08T01:43:43.712Z,1.80
2022-08-08T01:46:36.686Z,1.85
2022-08-08T01:49:23.368Z,2.03
2022-08-08T01:54:01.183Z,1.80
2022-08-08T01:56:27.052Z,1.50
2022-08-08T01:58:35.922Z,1.60
2022-08-08T02:02:00.690Z,1.80
2022-08-08T02:04:52.174Z,1.90
2022-08-08T02:07:42.008Z,1.70
2022-08-08T02:10:45.894Z,1.60
2022-08-08T02:13:56.916Z,1.90
2022-08-08T02:17:00.092Z,1.70
2022-08-08T02:20:07.685Z,1.83
2022-08-08T02:22:55.489Z,1.95
2022-08-08T02:25:49.785Z,1.70
2022-08-08T02:28:39.011Z,1.75
2022-08-08T02:31:58.013Z,1.70
2022-08-08T02:35:10.900Z,1.92
2022-08-08T02:38:09.322Z,1.58
2022-08-08T02:40:45.248Z,1.52
2022-08-08T02:44:38.106Z,1.60
2022-08-08T02:46:47.382Z,1.67
2022-08-08T02:49:48.120Z,1.70
2022-08-08T02:52:50.731Z,2.03
2022-08-08T02:55:42.844Z,1.70
2022-08-08T02:58:34.789Z,1.60
2022-08-08T03:01:32.772Z,1.60
2022-08-08T03:05:04.944Z,1.60
2022-08-08T03:07:41.579Z,1.90
2022-08-08T03:10:32.772Z,1.63
2022-08-08T03:15:57.395Z,1.50
2022-08-08T03:16:43.406Z,1.50
2022-08-08T03:19:20.088Z,1.70
2022-08-08T03:21:58.522Z,1.42
2022-08-08T03:24:29.281Z,1.75
2022-08-08T03:27:08.113Z,1.90
2022-08-08T03:29:54.938Z,1.60
2022-08-08T03:32:47.611Z,2.00
2022-08-08T03:35:30.209Z,1.90
2022-08-08T03:38:58.404Z,2.00
2022-08-08T03:40:54.996Z,1.92
2022-08-08T03:46:09.368Z,1.80
2022-08-08T03:49:09.404Z,1.67
2022-08-08T03:51:50.310Z,1.70
2022-08-08T03:54:41.711Z,1.98
2022-08-08T03:58:30.602Z,1.80
2022-08-08T04:00:18.624Z,2.03
2022-08-08T04:03:04.006Z,1.80
2022-08-08T04:05:35.354Z,2.10
2022-08-08T04:08:33.362Z,2.00
2022-08-08T04:14:03.841Z,2.28
2022-08-08T04:16:49.260Z,1.73
2022-08-08T04:19:24.199Z,1.80
2022-08-08T04:22:00.672Z,1.83
2022-08-08T04:24:35.700Z,1.77
2022-08-08T04:27:07.609Z,1.77
2022-08-08T04:29:55.310Z,1.80
2022-08-08T04:32:34.104Z,2.30
2022-08-08T04:35:03.901Z,1.73
2022-08-08T04:37:35.863Z,1.85
2022-08-08T04:40:12.785Z,1.90
2022-08-08T04:42:57.245Z,1.60
2022-08-08T04:45:33.624Z,1.70
2022-08-08T04:48:06.886Z,1.92
2022-08-08T04:50:40.300Z,1.88
2022-08-08T04:54:36.022Z,2.22
2022-08-08T04:56:12.961Z,1.88
2022-08-08T04:58:43.504Z,2.15
2022-08-08T05:01:16.035Z,2.20
2022-08-08T05:04:11.278Z,2.00
2022-08-08T05:06:42.795Z,2.10
2022-08-08T05:09:11.997Z,2.03
2022-08-08T05:11:47.591Z,2.20
2022-08-08T05:14:15.846Z,2.17
2022-08-08T05:17:00.818Z,2.10
2022-08-08T05:20:10.355Z,2.47
2022-08-08T05:22:30.965Z,2.13
2022-08-08T05:24:59.783Z,2.15
2022-08-08T05:27:27.363Z,2.10
2022-08-08T05:30:01.434Z,2.10
2022-08-08T05:32:37.755Z,2.20
2022-08-08T05:35:10.257Z,1.90
2022-08-08T05:37:54.480Z,1.92
2022-08-08T05:40:39.264Z,2.13
2022-08-08T05:43:15.563Z,2.20
2022-08-08T05:46:08.142Z,2.00
2022-08-08T05:48:39.186Z,2.10
2022-08-08T05:51:14.311Z,2.03
2022-08-08T05:54:25.910Z,2.53
2022-08-08T05:56:42.228Z,2.08
2022-08-08T06:00:00.866Z,2.08
2022-08-08T06:02:40.982Z,2.38
2022-08-08T06:05:32.910Z,2.00
2022-08-08T06:08:09.764Z,2.20
2022-08-08T06:10:41.801Z,2.22
2022-08-08T06:13:12.454Z,2.40
2022-08-08T06:15:50.879Z,2.60
2022-08-08T06:18:42.949Z,2.83
2022-08-08T06:21:28.435Z,2.90
2022-08-08T06:24:36.470Z,2.90
2022-08-08T06:27:15.129Z,2.77
2022-08-08T06:30:07.316Z,3.15
2022-08-08T06:32:58.081Z,2.60
2022-08-08T06:36:06.133Z,2.78
2022-08-08T06:38:40.017Z,3.00
2022-08-08T06:41:13.407Z,2.50
2022-08-08T06:43:47.729Z,3.42
2022-08-08T06:46:29.861Z,2.97
2022-08-08T06:49:03.136Z,2.90
2022-08-08T06:51:46.927Z,3.03
2022-08-08T06:54:28.547Z,2.65
2022-08-08T06:56:59.063Z,2.63
2022-08-08T07:00:02.590Z,2.88
2022-08-08T07:02:32.000Z,2.60
2022-08-08T07:05:20.341Z,2.55
2022-08-08T07:08:09.346Z,3.08
2022-08-08T07:10:47.744Z,2.60
2022-08-08T07:13:18.722Z,2.50
2022-08-08T07:16:06.308Z,2.60
2022-08-08T07:19:09.835Z,2.70
2022-08-08T07:21:51.266Z,3.00
2022-08-08T07:24:29.756Z,2.72
2022-08-08T07:27:05.853Z,2.85
2022-08-08T07:30:02.090Z,2.50
2022-08-08T07:32:28.798Z,3.17
2022-08-08T07:35:06.307Z,2.70
2022-08-08T07:37:55.700Z,2.13
2022-08-08T07:40:40.072Z,2.40
2022-08-08T07:43:13.082Z,3.03
2022-08-08T07:46:05.069Z,3.20
2022-08-08T07:48:37.221Z,2.40
2022-08-08T07:51:12.031Z,2.97
2022-08-08T07:54:26.740Z,2.70
2022-08-08T07:57:24.747Z,2.83
2022-08-08T07:59:58.749Z,3.22
2022-08-08T08:02:43.571Z,2.50
2022-08-08T08:05:33.041Z,2.40
2022-08-08T08:08:27.039Z,2.75
2022-08-08T08:10:59.691Z,2.30
2022-08-08T08:13:42.592Z,2.35
2022-08-08T08:16:32.258Z,2.65
2022-08-08T08:19:06.338Z,2.40
2022-08-08T08:21:57.524Z,2.40
2022-08-08T08:24:35.365Z,2.53
2022-08-08T08:27:08.374Z,2.20
2022-08-08T08:29:44.121Z,2.80
2022-08-08T08:32:36.455Z,2.13
2022-08-08T08:35:15.209Z,2.70
2022-08-08T08:38:12.902Z,2.90
2022-08-08T08:40:35.100Z,2.60
2022-08-08T08:43:15.194Z,2.40
2022-08-08T08:45:48.017Z,2.47
2022-08-08T08:48:22.197Z,2.28
2022-08-08T08:50:59.574Z,2.30
2022-08-08T08:53:54.924Z,2.38
2022-08-08T08:56:28.386Z,2.40
2022-08-08T08:59:05.628Z,2.40
2022-08-08T09:01:45.529Z,2.45
2022-08-08T09:04:30.352Z,2.30
2022-08-08T09:07:13.518Z,2.33
2022-08-08T09:09:48.352Z,2.17
2022-08-08T09:12:27.980Z,2.20
2022-08-08T09:14:58.458Z,2.10
2022-08-08T09:17:52.177Z,2.70
2022-08-08T09:22:02.790Z,2.58
2022-08-08T09:23:25.417Z,2.75
2022-08-08T09:26:12.487Z,2.67
2022-08-08T09:28:45.950Z,3.00
2022-08-08T09:31:56.624Z,2.90
2022-08-08T09:34:34.511Z,2.75
2022-08-08T09:37:58.508Z,3.00
2022-08-08T09:40:11.271Z,2.95
2022-08-08T09:42:51.176Z,3.00
2022-08-08T09:46:02.244Z,3.10
2022-08-08T09:48:35.401Z,3.28
2022-08-08T09:51:06.633Z,3.42
2022-08-08T09:54:07.834Z,2.60
2022-08-08T09:56:45.332Z,7.85
2022-08-08T10:00:01.749Z,3.15
2022-08-08T10:02:20.101Z,3.35
2022-08-08T10:04:55.980Z,3.65
2022-08-08T10:07:25.938Z,3.00
2022-08-08T10:10:00.990Z,2.70
2022-08-08T10:12:53.882Z,2.97
2022-08-08T10:15:26.990Z,2.67
2022-08-08T10:18:10.134Z,2.78
2022-08-08T10:21:00.659Z,3.08
2022-08-08T10:23:58.719Z,2.45
2022-08-08T10:26:52.447Z,2.25
2022-08-08T10:29:44.136Z,2.40
2022-08-08T10:32:36.135Z,2.38
2022-08-08T10:36:07.494Z,2.92
2022-08-08T10:38:08.007Z,2.55
2022-08-08T10:40:45.561Z,2.50
2022-08-08T10:43:14.392Z,2.50
2022-08-08T10:45:57.234Z,3.60
2022-08-08T10:48:56.671Z,2.75
2022-08-08T10:51:31.589Z,3.08
2022-08-08T10:54:25.123Z,2.47
2022-08-08T10:57:03.719Z,3.08
2022-08-08T10:59:39.395Z,3.38
2022-08-08T11:02:09.459Z,2.78
2022-08-08T11:04:53.045Z,3.10
2022-08-08T11:08:29.912Z,2.67
2022-08-08T11:10:29.409Z,2.88
2022-08-08T11:16:00.705Z,3.05
2022-08-08T11:18:33.522Z,2.40
2022-08-08T11:21:09.024Z,2.65
2022-08-08T11:23:42.242Z,2.80
2022-08-08T11:26:18.825Z,2.20
2022-08-08T11:28:51.972Z,2.88
2022-08-08T11:31:27.396Z,2.25
2022-08-08T11:34:24.376Z,2.15
2022-08-08T11:36:51.270Z,2.30
2022-08-08T11:39:21.281Z,2.28
2022-08-08T11:41:50.792Z,2.00
2022-08-08T11:44:28.970Z,2.25
2022-08-08T11:47:00.020Z,2.20
2022-08-08T11:49:28.530Z,2.22
2022-08-08T11:52:01.346Z,2.20
2022-08-08T11:54:38.361Z,1.88
2022-08-08T11:57:18.146Z,2.20
2022-08-08T12:00:05.645Z,2.00
2022-08-08T12:02:58.552Z,2.35
2022-08-08T12:05:33.541Z,2.10
2022-08-08T12:08:02.049Z,2.30
2022-08-08T12:10:32.070Z,1.98
2022-08-08T12:13:15.375Z,2.10
2022-08-08T12:15:51.689Z,2.03
2022-08-08T12:18:28.650Z,2.30
2022-08-08T12:20:59.625Z,2.10
2022-08-08T12:23:40.746Z,1.80
2022-08-08T12:26:27.833Z,2.13
2022-08-08T12:29:40.253Z,2.10
2022-08-08T12:32:19.615Z,2.10
2022-08-08T12:35:13.483Z,2.22
2022-08-08T12:38:02.863Z,2.10
2022-08-08T12:40:44.460Z,2.20
2022-08-08T12:43:47.497Z,2.53
2022-08-08T12:46:26.750Z,1.92
2022-08-08T12:51:59.164Z,2.08
2022-08-08T12:54:36.081Z,2.35
2022-08-08T12:57:25.979Z,2.00
2022-08-08T13:00:13.563Z,2.03
2022-08-08T13:02:51.610Z,2.00
2022-08-08T13:05:27.084Z,2.10
2022-08-08T13:08:18.137Z,1.90
2022-08-08T13:10:56.603Z,1.80
2022-08-08T13:13:38.026Z,2.30
2022-08-08T13:16:25.495Z,2.13
2022-08-08T13:19:09.283Z,1.80
2022-08-08T13:21:58.080Z,2.10
2022-08-08T13:24:41.966Z,2.53
2022-08-08T13:27:16.631Z,2.30
2022-08-08T13:29:51.433Z,1.90
2022-08-08T13:32:25.470Z,1.60
2022-08-08T13:34:59.346Z,2.67
2022-08-08T13:38:05.776Z,2.20
2022-08-08T13:40:30.505Z,2.33
2022-08-08T13:43:00.303Z,2.65
2022-08-08T13:45:27.620Z,3.13
2022-08-08T13:48:02.872Z,3.00
2022-08-08T13:50:48.039Z,3.00
2022-08-08T13:53:36.092Z,2.88
2022-08-08T13:56:11.492Z,2.55
2022-08-08T13:58:56.287Z,2.80
2022-08-08T14:01:41.598Z,2.30
2022-08-08T14:04:25.457Z,2.65
2022-08-08T14:07:00.440Z,3.40
2022-08-08T14:10:04.507Z,2.63
2022-08-08T14:12:33.880Z,2.03
2022-08-08T14:15:03.029Z,2.33
2022-08-08T14:17:58.213Z,2.40
2022-08-08T14:20:56.915Z,2.55
2022-08-08T14:24:06.473Z,2.90
2022-08-08T14:26:21.688Z,3.42
2022-08-08T14:29:00.105Z,3.13
2022-08-08T14:34:22.949Z,3.25
2022-08-08T14:36:53.272Z,3.13
2022-08-08T14:39:47.916Z,3.25
2022-08-08T14:42:16.754Z,3.10
2022-08-08T14:44:57.417Z,2.95
2022-08-08T14:47:36.094Z,3.03
2022-08-08T14:50:14.053Z,2.78
2022-08-08T14:53:00.988Z,2.97
2022-08-08T14:55:41.202Z,2.67
2022-08-08T14:58:16.306Z,2.90
2022-08-08T15:00:45.072Z,2.72
2022-08-08T15:03:16.120Z,2.75
2022-08-08T15:05:54.480Z,2.25
2022-08-08T15:08:34.747Z,2.45
2022-08-08T15:11:09.284Z,2.63
2022-08-08T15:14:02.026Z,2.35
2022-08-08T15:16:34.690Z,1.92
2022-08-08T15:19:04.005Z,2.30
2022-08-08T15:21:32.114Z,2.17
2022-08-08T15:23:59.621Z,2.22
2022-08-08T15:26:28.715Z,2.00
2022-08-08T15:28:58.951Z,2.33
2022-08-08T15:32:17.515Z,2.20
2022-08-08T15:34:31.579Z,1.90
2022-08-08T15:37:02.387Z,2.10
2022-08-08T15:39:38.585Z,2.05
2022-08-08T15:42:18.154Z,2.15
2022-08-08T15:44:57.549Z,1.90
2022-08-08T15:47:25.425Z,2.40
2022-08-08T15:49:53.163Z,2.13
2022-08-08T15:52:23.315Z,2.40
2022-08-08T15:54:53.529Z,2.07
2022-08-08T15:57:23.478Z,1.90
2022-08-08T16:00:05.429Z,2.00
2022-08-08T16:02:50.191Z,2.03
2022-08-08T16:05:19.745Z,2.10
2022-08-08T16:07:52.652Z,2.22
2022-08-08T16:13:11.831Z,2.45
2022-08-08T16:13:34.553Z,1.73
2022-08-08T16:16:09.678Z,2.10
2022-08-08T16:18:53.212Z,1.88
2022-08-08T16:21:31.755Z,2.58
2022-08-08T16:24:02.507Z,2.08
2022-08-08T16:26:38.459Z,2.42
2022-08-08T16:29:16.214Z,2.05
2022-08-08T16:31:49.925Z,2.20
2022-08-08T16:34:20.936Z,2.13
2022-08-08T16:36:51.523Z,2.20
2022-08-08T16:40:01.368Z,2.67
2022-08-08T16:42:17.713Z,2.40
2022-08-08T16:44:55.168Z,2.20
2022-08-08T16:47:40.262Z,2.35
2022-08-08T16:50:15.901Z,2.92
2022-08-08T16:55:06.261Z,2.67
2022-08-08T16:55:53.803Z,2.65
2022-08-08T16:58:29.445Z,2.78
2022-08-08T17:01:05.679Z,2.40
2022-08-08T17:03:58.510Z,2.72
2022-08-08T17:06:36.282Z,2.55
2022-08-08T17:09:07.684Z,2.50
2022-08-08T17:11:49.242Z,2.50
2022-08-08T17:14:33.042Z,2.22
2022-08-08T17:17:03.929Z,2.20
2022-08-08T17:19:40.982Z,2.40
2022-08-08T17:22:09.645Z,2.20
2022-08-08T17:24:37.705Z,2.13
2022-08-08T17:27:05.834Z,2.58
2022-08-08T17:29:43.769Z,2.70
2022-08-08T17:32:28.805Z,2.10
2022-08-08T17:35:44.467Z,1.90
2022-08-08T17:37:53.251Z,2.20
2022-08-08T17:40:21.181Z,2.10
2022-08-08T17:42:54.119Z,1.90
2022-08-08T17:45:25.156Z,1.90
2022-08-08T17:47:54.594Z,2.10
2022-08-08T17:50:23.755Z,1.83
2022-08-08T17:52:56.389Z,1.67
2022-08-08T17:56:04.103Z,2.10
2022-08-08T17:58:16.050Z,1.92
2022-08-08T18:00:47.451Z,1.80
2022-08-08T18:03:24.392Z,1.92
2022-08-08T18:05:53.967Z,1.88
2022-08-08T18:08:40.818Z,1.77
2022-08-08T18:11:16.767Z,1.83
2022-08-08T18:13:46.181Z,1.80
2022-08-08T18:16:17.084Z,1.85
2022-08-08T18:18:53.934Z,1.67
2022-08-08T18:21:59.702Z,1.67
2022-08-08T18:24:21.615Z,1.52
2022-08-08T18:26:54.346Z,1.73
2022-08-08T18:29:33.128Z,1.67
2022-08-08T18:32:09.360Z,1.70
2022-08-08T18:34:42.749Z,1.58
2022-08-08T18:37:33.679Z,1.60
2022-08-08T18:40:02.106Z,2.05
2022-08-08T18:42:29.425Z,1.60
2022-08-08T18:44:57.456Z,1.98
2022-08-08T18:47:31.164Z,1.70
2022-08-08T18:50:02.773Z,1.80
2022-08-08T18:52:33.910Z,1.85
2022-08-08T18:55:09.620Z,1.95
2022-08-08T18:57:44.508Z,1.63
2022-08-08T19:00:20.557Z,1.77
2022-08-08T19:02:56.469Z,1.83
2022-08-08T19:05:30.656Z,1.90
2022-08-08T19:08:10.280Z,1.95
2022-08-08T19:10:54.479Z,1.70
2022-08-08T19:13:47.383Z,1.70
2022-08-08T19:16:19.031Z,1.75
2022-08-08T19:18:53.155Z,1.90
2022-08-08T19:21:33.006Z,2.05
2022-08-08T19:24:07.295Z,1.70
2022-08-08T19:26:37.485Z,1.70
2022-08-08T19:29:05.895Z,1.98
2022-08-08T19:31:36.367Z,1.80
2022-08-08T19:34:36.805Z,1.80
2022-08-08T19:36:59.316Z,1.60
2022-08-08T19:39:34.713Z,1.60
2022-08-08T19:42:05.097Z,1.60
2022-08-08T19:44:45.419Z,1.80
2022-08-08T19:47:16.542Z,1.83
2022-08-08T19:50:00.191Z,1.38
2022-08-08T19:52:34.684Z,1.92
2022-08-08T19:55:14.592Z,1.55
2022-08-08T19:57:47.422Z,1.65
2022-08-08T20:00:30.608Z,1.60
2022-08-08T20:03:14.591Z,1.90
2022-08-08T20:06:14.519Z,2.10
2022-08-08T20:08:47.714Z,2.10
2022-08-08T20:11:21.830Z,2.10
2022-08-08T20:14:32.529Z,2.25
2022-08-08T20:16:40.749Z,2.00
2022-08-08T20:19:09.340Z,2.00
2022-08-08T20:21:38.302Z,1.80
2022-08-08T20:24:08.692Z,1.85
2022-08-08T20:26:41.860Z,2.10
2022-08-08T20:29:14.824Z,2.05
2022-08-08T20:32:08.177Z,1.73
2022-08-08T20:34:36.396Z,1.95
2022-08-08T20:37:07.856Z,1.70
2022-08-08T20:39:41.761Z,1.92
2022-08-08T20:42:28.473Z,1.70
2022-08-08T20:44:58.592Z,1.50
2022-08-08T20:47:36.291Z,1.73
2022-08-08T20:50:10.023Z,1.60
2022-08-08T20:52:38.490Z,1.80
2022-08-08T20:55:07.739Z,1.70
2022-08-08T20:57:51.286Z,1.67
2022-08-08T21:00:18.729Z,1.70
2022-08-08T21:02:52.398Z,1.73
2022-08-08T21:05:23.059Z,1.77
2022-08-08T21:08:36.056Z,1.67
2022-08-08T21:10:41.831Z,1.58
2022-08-08T21:13:13.873Z,1.90
2022-08-08T21:16:04.972Z,1.40
2022-08-08T21:18:29.363Z,1.77
2022-08-08T21:20:59.597Z,1.33
2022-08-08T21:23:58.970Z,1.50
2022-08-08T21:26:27.060Z,1.60
2022-08-08T21:28:55.831Z,1.60
2022-08-08T21:31:53.214Z,1.50
2022-08-08T21:34:18.921Z,1.80
2022-08-08T21:36:48.501Z,1.60
2022-08-08T21:39:21.950Z,1.75
2022-08-08T21:41:51.168Z,1.90
2022-08-08T21:44:26.525Z,1.70
2022-08-08T21:48:01.406Z,2.03
2022-08-08T21:49:41.349Z,1.98
2022-08-08T21:54:35.172Z,1.90
2022-08-08T21:56:18.292Z,1.90
2022-08-08T21:58:05.229Z,2.00
2022-08-08T22:00:40.533Z,2.13
2022-08-08T22:03:08.471Z,2.25
2022-08-08T22:05:41.431Z,2.20
2022-08-08T22:08:09.032Z,2.17
2022-08-08T22:10:38.906Z,2.03
2022-08-08T22:13:18.716Z,2.40
2022-08-08T22:16:19.920Z,2.08
2022-08-08T22:18:53.129Z,2.30
2022-08-08T22:21:25.953Z,2.40
2022-08-08T22:24:01.998Z,2.33
2022-08-08T22:26:31.155Z,2.60
2022-08-08T22:29:13.633Z,2.05
2022-08-08T22:31:58.810Z,2.33
2022-08-08T22:34:39.623Z,2.20
2022-08-08T22:37:14.995Z,2.08
2022-08-08T22:40:00.379Z,2.20
2022-08-08T22:42:34.324Z,2.20
2022-08-08T22:45:05.305Z,2.33
2022-08-08T22:47:41.549Z,2.08
2022-08-08T22:50:26.132Z,2.00
2022-08-08T22:54:32.025Z,2.25
2022-08-08T22:55:58.065Z,2.30
2022-08-08T22:58:35.060Z,2.33
2022-08-08T23:02:01.750Z,2.00
2022-08-08T23:03:53.385Z,2.00
2022-08-08T23:06:23.421Z,2.08
2022-08-08T23:08:55.576Z,2.10
2022-08-08T23:11:31.139Z,2.10
2022-08-08T23:14:21.101Z,2.22
2022-08-08T23:16:57.427Z,2.00
2022-08-08T23:19:27.888Z,2.13
2022-08-08T23:22:05.165Z,2.30
2022-08-08T23:24:36.395Z,2.10
2022-08-08T23:27:17.211Z,2.30
2022-08-08T23:30:03.642Z,2.05
2022-08-08T23:32:31.725Z,2.13
2022-08-08T23:35:00.505Z,2.03
2022-08-08T23:38:01.070Z,2.13
2022-08-08T23:40:17.163Z,2.10
2022-08-08T23:42:51.992Z,1.92
2022-08-08T23:49:00.082Z,1.92
2022-08-08T23:49:07.761Z,1.98
2022-08-08T23:51:03.758Z,2.33
2022-08-08T23:54:05.782Z,2.00
2022-08-08T23:56:31.753Z,2.30
2022-08-08T23:59:00.679Z,2.38
